sensor_id;sensor_type;location;lat;lon;timestamp;temperature;humidity
35603;DHT22;21725;50.836;4.368;2023-05-10T00:01:32;16.40;99.90
35603;DHT22;21725;50.836;4.368;2023-05-10T00:04:33;16.60;99.90
35603;DHT22;21725;50.836;4.368;2023-05-10T00:07:34;16.70;99.90
35603;DHT22;21725;50.836;4.368;2023-05-10T00:10:34;16.70;99.90
35603;DHT22;21725;50.836;4.368;2023-05-10T00:13:36;16.70;99.90
35603;DHT22;21725;50.836;4.368;2023-05-10T00:16:37;16.60;99.90
35603;DHT22;21725;50.836;4.368;2023-05-10T00:19:38;16.70;99.90
35603;DHT22;21725;50.836;4.368;2023-05-10T00:22:38;16.60;99.90
35603;DHT22;21725;50.836;4.368;2023-05-10T00:25:39;16.50;99.90
35603;DHT22;21725;50.836;4.368;2023-05-10T00:28:40;16.40;99.90
35603;DHT22;21725;50.836;4.368;2023-05-10T00:31:40;16.60;99.90
35603;DHT22;21725;50.836;4.368;2023-05-10T00:34:41;16.70;99.90
35603;DHT22;21725;50.836;4.368;2023-05-10T00:37:42;16.60;99.90
35603;DHT22;21725;50.836;4.368;2023-05-10T00:40:43;16.60;99.90
35603;DHT22;21725;50.836;4.368;2023-05-10T00:43:44;16.80;99.90
35603;DHT22;21725;50.836;4.368;2023-05-10T00:46:45;16.80;99.90
35603;DHT22;21725;50.836;4.368;2023-05-10T00:49:46;16.80;99.90
35603;DHT22;21725;50.836;4.368;2023-05-10T00:52:47;16.80;99.90
35603;DHT22;21725;50.836;4.368;2023-05-10T00:55:48;16.60;99.90
35603;DHT22;21725;50.836;4.368;2023-05-10T00:58:49;16.60;99.90
35603;DHT22;21725;50.836;4.368;2023-05-10T01:01:50;16.60;99.90
35603;DHT22;21725;50.836;4.368;2023-05-10T01:04:52;16.60;99.90
35603;DHT22;21725;50.836;4.368;2023-05-10T01:07:52;16.50;99.90
35603;DHT22;21725;50.836;4.368;2023-05-10T01:10:54;16.50;99.90
35603;DHT22;21725;50.836;4.368;2023-05-10T01:13:56;16.60;99.90
35603;DHT22;21725;50.836;4.368;2023-05-10T01:16:58;16.50;99.90
35603;DHT22;21725;50.836;4.368;2023-05-10T01:19:59;16.50;99.90
35603;DHT22;21725;50.836;4.368;2023-05-10T01:33:26;16.20;99.90
35603;DHT22;21725;50.836;4.368;2023-05-10T01:37:16;16.20;99.90
35603;DHT22;21725;50.836;4.368;2023-05-10T01:40:23;16.30;99.90
35603;DHT22;21725;50.836;4.368;2023-05-10T01:43:29;15.90;99.90
35603;DHT22;21725;50.836;4.368;2023-05-10T01:46:38;16.50;99.90
35603;DHT22;21725;50.836;4.368;2023-05-10T01:49:45;16.40;99.90
35603;DHT22;21725;50.836;4.368;2023-05-10T01:52:51;16.40;99.90
35603;DHT22;21725;50.836;4.368;2023-05-10T01:55:55;16.40;99.90
35603;DHT22;21725;50.836;4.368;2023-05-10T01:58:56;16.50;99.90
35603;DHT22;21725;50.836;4.368;2023-05-10T02:01:59;16.50;99.90
35603;DHT22;21725;50.836;4.368;2023-05-10T02:05:03;16.40;99.90
35603;DHT22;21725;50.836;4.368;2023-05-10T02:08:06;16.30;99.90
35603;DHT22;21725;50.836;4.368;2023-05-10T02:11:08;16.40;99.90
35603;DHT22;21725;50.836;4.368;2023-05-10T02:14:12;16.30;99.90
35603;DHT22;21725;50.836;4.368;2023-05-10T02:17:14;16.30;99.90
35603;DHT22;21725;50.836;4.368;2023-05-10T02:20:16;16.30;99.90
35603;DHT22;21725;50.836;4.368;2023-05-10T02:23:20;16.30;99.90
35603;DHT22;21725;50.836;4.368;2023-05-10T02:26:23;16.40;99.90
35603;DHT22;21725;50.836;4.368;2023-05-10T02:29:26;16.30;99.90
35603;DHT22;21725;50.836;4.368;2023-05-10T02:32:28;16.30;99.90
35603;DHT22;21725;50.836;4.368;2023-05-10T02:35:29;16.10;99.90
35603;DHT22;21725;50.836;4.368;2023-05-10T02:38:31;16.00;99.90
35603;DHT22;21725;50.836;4.368;2023-05-10T02:41:33;16.10;99.90
35603;DHT22;21725;50.836;4.368;2023-05-10T02:44:35;16.10;99.90
35603;DHT22;21725;50.836;4.368;2023-05-10T02:47:36;16.10;99.90
35603;DHT22;21725;50.836;4.368;2023-05-10T02:50:42;16.20;99.90
35603;DHT22;21725;50.836;4.368;2023-05-10T02:53:46;16.20;99.90
35603;DHT22;21725;50.836;4.368;2023-05-10T02:56:51;16.20;99.90
35603;DHT22;21725;50.836;4.368;2023-05-10T02:59:54;16.10;99.90
35603;DHT22;21725;50.836;4.368;2023-05-10T03:02:55;16.00;99.90
35603;DHT22;21725;50.836;4.368;2023-05-10T03:05:56;16.10;99.90
35603;DHT22;21725;50.836;4.368;2023-05-10T03:08:58;16.00;99.90
35603;DHT22;21725;50.836;4.368;2023-05-10T03:18:52;16.10;99.90
35603;DHT22;21725;50.836;4.368;2023-05-10T03:21:59;16.10;99.90
35603;DHT22;21725;50.836;4.368;2023-05-10T03:25:05;15.90;99.90
35603;DHT22;21725;50.836;4.368;2023-05-10T03:28:06;15.80;99.90
35603;DHT22;21725;50.836;4.368;2023-05-10T03:31:07;15.90;99.90
35603;DHT22;21725;50.836;4.368;2023-05-10T03:34:08;16.10;99.90
35603;DHT22;21725;50.836;4.368;2023-05-10T03:37:09;16.10;99.90
35603;DHT22;21725;50.836;4.368;2023-05-10T03:40:10;16.00;99.90
35603;DHT22;21725;50.836;4.368;2023-05-10T03:43:11;16.00;99.90
35603;DHT22;21725;50.836;4.368;2023-05-10T03:46:12;16.00;99.90
35603;DHT22;21725;50.836;4.368;2023-05-10T03:49:12;16.00;99.90
35603;DHT22;21725;50.836;4.368;2023-05-10T03:52:14;16.00;99.90
35603;DHT22;21725;50.836;4.368;2023-05-10T03:55:15;16.00;99.90
35603;DHT22;21725;50.836;4.368;2023-05-10T03:58:16;16.10;99.90
35603;DHT22;21725;50.836;4.368;2023-05-10T04:01:20;16.10;99.90
35603;DHT22;21725;50.836;4.368;2023-05-10T04:04:20;16.20;99.90
35603;DHT22;21725;50.836;4.368;2023-05-10T04:07:22;16.20;99.90
35603;DHT22;21725;50.836;4.368;2023-05-10T04:10:22;16.20;99.90
35603;DHT22;21725;50.836;4.368;2023-05-10T04:13:23;16.20;99.90
35603;DHT22;21725;50.836;4.368;2023-05-10T04:16:24;16.30;99.90
35603;DHT22;21725;50.836;4.368;2023-05-10T04:19:29;16.40;99.90
35603;DHT22;21725;50.836;4.368;2023-05-10T04:22:31;16.40;99.90
35603;DHT22;21725;50.836;4.368;2023-05-10T04:25:34;16.40;99.90
35603;DHT22;21725;50.836;4.368;2023-05-10T04:28:35;16.40;99.90
35603;DHT22;21725;50.836;4.368;2023-05-10T04:31:36;16.40;99.90
35603;DHT22;21725;50.836;4.368;2023-05-10T04:34:37;16.40;99.90
35603;DHT22;21725;50.836;4.368;2023-05-10T04:37:38;16.40;99.90
35603;DHT22;21725;50.836;4.368;2023-05-10T04:40:39;16.40;99.90
35603;DHT22;21725;50.836;4.368;2023-05-10T04:43:39;16.30;99.90
35603;DHT22;21725;50.836;4.368;2023-05-10T04:46:40;16.20;99.90
35603;DHT22;21725;50.836;4.368;2023-05-10T04:49:41;16.30;99.90
35603;DHT22;21725;50.836;4.368;2023-05-10T04:52:42;16.40;99.90
35603;DHT22;21725;50.836;4.368;2023-05-10T04:55:42;16.40;99.90
35603;DHT22;21725;50.836;4.368;2023-05-10T04:58:43;16.50;99.90
35603;DHT22;21725;50.836;4.368;2023-05-10T05:01:44;16.60;99.90
35603;DHT22;21725;50.836;4.368;2023-05-10T05:04:45;16.70;99.90
35603;DHT22;21725;50.836;4.368;2023-05-10T05:07:45;16.70;99.90
35603;DHT22;21725;50.836;4.368;2023-05-10T05:10:48;16.60;99.90
35603;DHT22;21725;50.836;4.368;2023-05-10T05:13:50;16.70;99.90
35603;DHT22;21725;50.836;4.368;2023-05-10T05:16:52;16.60;99.90
35603;DHT22;21725;50.836;4.368;2023-05-10T05:19:53;16.60;99.90
35603;DHT22;21725;50.836;4.368;2023-05-10T05:22:54;16.60;99.90
35603;DHT22;21725;50.836;4.368;2023-05-10T05:25:55;16.50;99.90
35603;DHT22;21725;50.836;4.368;2023-05-10T05:28:56;16.30;99.90
35603;DHT22;21725;50.836;4.368;2023-05-10T05:31:56;16.40;99.90
35603;DHT22;21725;50.836;4.368;2023-05-10T05:34:57;16.40;99.90
35603;DHT22;21725;50.836;4.368;2023-05-10T05:37:58;16.40;99.90
35603;DHT22;21725;50.836;4.368;2023-05-10T05:40:59;16.20;99.90
35603;DHT22;21725;50.836;4.368;2023-05-10T05:43:59;16.10;99.90
35603;DHT22;21725;50.836;4.368;2023-05-10T05:47:00;16.00;99.90
35603;DHT22;21725;50.836;4.368;2023-05-10T05:50:01;16.00;99.90
35603;DHT22;21725;50.836;4.368;2023-05-10T05:53:02;15.90;99.90
35603;DHT22;21725;50.836;4.368;2023-05-10T05:56:03;15.90;99.90
35603;DHT22;21725;50.836;4.368;2023-05-10T05:59:04;16.00;99.90
35603;DHT22;21725;50.836;4.368;2023-05-10T06:02:05;15.90;99.90
35603;DHT22;21725;50.836;4.368;2023-05-10T06:05:06;15.80;99.90
35603;DHT22;21725;50.836;4.368;2023-05-10T06:08:08;15.80;99.90
35603;DHT22;21725;50.836;4.368;2023-05-10T06:11:09;15.70;99.90
35603;DHT22;21725;50.836;4.368;2023-05-10T06:14:09;15.60;99.90
35603;DHT22;21725;50.836;4.368;2023-05-10T06:17:10;15.60;99.90
35603;DHT22;21725;50.836;4.368;2023-05-10T06:20:11;15.60;99.90
35603;DHT22;21725;50.836;4.368;2023-05-10T06:23:12;15.50;99.90
35603;DHT22;21725;50.836;4.368;2023-05-10T06:26:16;15.40;99.90
35603;DHT22;21725;50.836;4.368;2023-05-10T06:29:20;15.40;99.90
35603;DHT22;21725;50.836;4.368;2023-05-10T06:32:20;15.40;99.90
35603;DHT22;21725;50.836;4.368;2023-05-10T06:35:21;15.80;99.90
35603;DHT22;21725;50.836;4.368;2023-05-10T06:38:22;15.80;99.90
35603;DHT22;21725;50.836;4.368;2023-05-10T06:41:23;15.80;99.90
35603;DHT22;21725;50.836;4.368;2023-05-10T06:44:24;15.90;99.90
35603;DHT22;21725;50.836;4.368;2023-05-10T06:47:25;15.90;99.90
35603;DHT22;21725;50.836;4.368;2023-05-10T06:50:26;15.80;99.90
35603;DHT22;21725;50.836;4.368;2023-05-10T06:53:26;15.80;99.90
35603;DHT22;21725;50.836;4.368;2023-05-10T06:56:27;15.90;99.90
35603;DHT22;21725;50.836;4.368;2023-05-10T06:59:28;15.80;99.90
35603;DHT22;21725;50.836;4.368;2023-05-10T07:02:29;15.90;99.90
35603;DHT22;21725;50.836;4.368;2023-05-10T07:05:29;15.90;99.90
35603;DHT22;21725;50.836;4.368;2023-05-10T07:08:31;15.80;99.90
35603;DHT22;21725;50.836;4.368;2023-05-10T07:11:32;16.00;99.90
35603;DHT22;21725;50.836;4.368;2023-05-10T07:14:33;15.90;99.90
35603;DHT22;21725;50.836;4.368;2023-05-10T07:17:33;15.90;99.90
35603;DHT22;21725;50.836;4.368;2023-05-10T07:20:34;15.90;99.90
35603;DHT22;21725;50.836;4.368;2023-05-10T07:23:35;15.90;99.90
35603;DHT22;21725;50.836;4.368;2023-05-10T07:26:36;15.70;99.90
35603;DHT22;21725;50.836;4.368;2023-05-10T07:29:36;15.50;99.90
35603;DHT22;21725;50.836;4.368;2023-05-10T07:32:37;15.70;99.90
35603;DHT22;21725;50.836;4.368;2023-05-10T07:35:39;15.60;99.90
35603;DHT22;21725;50.836;4.368;2023-05-10T07:38:40;15.60;99.90
35603;DHT22;21725;50.836;4.368;2023-05-10T07:41:41;15.60;99.90
35603;DHT22;21725;50.836;4.368;2023-05-10T07:44:42;15.80;99.90
35603;DHT22;21725;50.836;4.368;2023-05-10T07:47:43;16.00;99.90
35603;DHT22;21725;50.836;4.368;2023-05-10T07:50:44;15.90;99.90
35603;DHT22;21725;50.836;4.368;2023-05-10T07:53:45;15.90;99.90
35603;DHT22;21725;50.836;4.368;2023-05-10T07:56:46;15.80;99.90
35603;DHT22;21725;50.836;4.368;2023-05-10T07:59:47;15.80;99.90
35603;DHT22;21725;50.836;4.368;2023-05-10T08:02:48;15.80;99.90
35603;DHT22;21725;50.836;4.368;2023-05-10T08:05:49;15.70;99.90
35603;DHT22;21725;50.836;4.368;2023-05-10T08:08:49;15.80;99.90
35603;DHT22;21725;50.836;4.368;2023-05-10T08:11:50;15.70;99.90
35603;DHT22;21725;50.836;4.368;2023-05-10T08:14:51;15.80;99.90
35603;DHT22;21725;50.836;4.368;2023-05-10T08:17:52;16.00;99.90
35603;DHT22;21725;50.836;4.368;2023-05-10T08:20:53;16.10;99.90
35603;DHT22;21725;50.836;4.368;2023-05-10T08:23:54;16.20;99.90
35603;DHT22;21725;50.836;4.368;2023-05-10T08:26:54;16.10;99.90
35603;DHT22;21725;50.836;4.368;2023-05-10T08:29:55;16.00;99.90
35603;DHT22;21725;50.836;4.368;2023-05-10T08:32:56;15.90;99.90
35603;DHT22;21725;50.836;4.368;2023-05-10T08:35:57;16.00;99.90
35603;DHT22;21725;50.836;4.368;2023-05-10T08:38:58;16.20;99.90
35603;DHT22;21725;50.836;4.368;2023-05-10T08:42:01;16.10;99.90
35603;DHT22;21725;50.836;4.368;2023-05-10T08:45:02;16.10;99.90
35603;DHT22;21725;50.836;4.368;2023-05-10T08:48:09;16.30;99.90
35603;DHT22;21725;50.836;4.368;2023-05-10T08:51:17;16.50;99.90
35603;DHT22;21725;50.836;4.368;2023-05-10T08:54:18;16.10;99.90
35603;DHT22;21725;50.836;4.368;2023-05-10T08:57:22;16.70;99.90
35603;DHT22;21725;50.836;4.368;2023-05-10T09:00:22;16.70;99.90
35603;DHT22;21725;50.836;4.368;2023-05-10T09:03:24;16.70;99.90
35603;DHT22;21725;50.836;4.368;2023-05-10T09:06:24;16.70;99.90
35603;DHT22;21725;50.836;4.368;2023-05-10T09:09:25;16.90;99.90
35603;DHT22;21725;50.836;4.368;2023-05-10T09:12:27;16.90;99.90
35603;DHT22;21725;50.836;4.368;2023-05-10T09:15:28;16.80;99.90
35603;DHT22;21725;50.836;4.368;2023-05-10T09:18:29;16.80;99.90
35603;DHT22;21725;50.836;4.368;2023-05-10T09:21:30;16.80;99.90
35603;DHT22;21725;50.836;4.368;2023-05-10T09:24:31;16.60;99.90
35603;DHT22;21725;50.836;4.368;2023-05-10T09:27:33;16.40;99.90
35603;DHT22;21725;50.836;4.368;2023-05-10T09:30:34;16.40;99.90
35603;DHT22;21725;50.836;4.368;2023-05-10T09:33:44;16.30;99.90
35603;DHT22;21725;50.836;4.368;2023-05-10T09:37:12;16.40;99.90
35603;DHT22;21725;50.836;4.368;2023-05-10T09:40:16;16.40;99.90
35603;DHT22;21725;50.836;4.368;2023-05-10T09:43:16;16.50;99.90
35603;DHT22;21725;50.836;4.368;2023-05-10T09:46:18;16.60;99.90
35603;DHT22;21725;50.836;4.368;2023-05-10T09:49:20;16.70;99.90
35603;DHT22;21725;50.836;4.368;2023-05-10T09:52:21;16.60;99.90
35603;DHT22;21725;50.836;4.368;2023-05-10T09:55:24;16.50;99.90
35603;DHT22;21725;50.836;4.368;2023-05-10T09:58:25;16.40;99.90
35603;DHT22;21725;50.836;4.368;2023-05-10T10:01:29;16.50;99.90
35603;DHT22;21725;50.836;4.368;2023-05-10T10:04:30;16.60;99.90
35603;DHT22;21725;50.836;4.368;2023-05-10T10:07:31;16.70;99.90
35603;DHT22;21725;50.836;4.368;2023-05-10T10:10:33;16.60;99.90
35603;DHT22;21725;50.836;4.368;2023-05-10T10:13:34;16.80;99.90
35603;DHT22;21725;50.836;4.368;2023-05-10T10:16:35;16.80;99.90
35603;DHT22;21725;50.836;4.368;2023-05-10T10:19:36;17.00;99.90
35603;DHT22;21725;50.836;4.368;2023-05-10T10:22:37;17.00;99.90
35603;DHT22;21725;50.836;4.368;2023-05-10T10:25:38;16.90;99.90
35603;DHT22;21725;50.836;4.368;2023-05-10T10:28:42;16.90;99.90
35603;DHT22;21725;50.836;4.368;2023-05-10T10:34:56;17.00;99.90
35603;DHT22;21725;50.836;4.368;2023-05-10T10:37:57;17.10;99.90
35603;DHT22;21725;50.836;4.368;2023-05-10T10:41:26;16.90;99.90
35603;DHT22;21725;50.836;4.368;2023-05-10T10:47:32;17.30;99.90
35603;DHT22;21725;50.836;4.368;2023-05-10T10:50:43;17.40;99.90
35603;DHT22;21725;50.836;4.368;2023-05-10T10:53:47;17.40;99.90
35603;DHT22;21725;50.836;4.368;2023-05-10T10:57:11;17.40;99.90
35603;DHT22;21725;50.836;4.368;2023-05-10T11:03:32;17.60;99.90
35603;DHT22;21725;50.836;4.368;2023-05-10T11:06:34;17.70;99.90
35603;DHT22;21725;50.836;4.368;2023-05-10T11:09:39;18.00;99.90
35603;DHT22;21725;50.836;4.368;2023-05-10T11:12:51;17.90;99.90
35603;DHT22;21725;50.836;4.368;2023-05-10T11:15:53;18.00;99.90
35603;DHT22;21725;50.836;4.368;2023-05-10T11:19:18;18.10;99.90
35603;DHT22;21725;50.836;4.368;2023-05-10T11:22:18;18.10;99.90
35603;DHT22;21725;50.836;4.368;2023-05-10T11:25:20;18.00;99.90
35603;DHT22;21725;50.836;4.368;2023-05-10T11:28:20;18.10;99.90
35603;DHT22;21725;50.836;4.368;2023-05-10T11:31:22;18.30;99.90
35603;DHT22;21725;50.836;4.368;2023-05-10T11:34:27;18.30;99.90
35603;DHT22;21725;50.836;4.368;2023-05-10T11:37:29;18.40;99.90
35603;DHT22;21725;50.836;4.368;2023-05-10T11:40:35;18.60;99.90
35603;DHT22;21725;50.836;4.368;2023-05-10T11:43:36;18.80;99.90
35603;DHT22;21725;50.836;4.368;2023-05-10T11:46:38;18.80;99.90
35603;DHT22;21725;50.836;4.368;2023-05-10T11:49:43;18.70;99.90
35603;DHT22;21725;50.836;4.368;2023-05-10T11:52:44;18.90;99.90
35603;DHT22;21725;50.836;4.368;2023-05-10T11:55:45;19.10;99.90
35603;DHT22;21725;50.836;4.368;2023-05-10T11:58:56;19.10;99.90
35603;DHT22;21725;50.836;4.368;2023-05-10T12:01:57;19.20;99.90
35603;DHT22;21725;50.836;4.368;2023-05-10T12:04:58;19.30;99.90
35603;DHT22;21725;50.836;4.368;2023-05-10T12:08:16;19.20;99.90
35603;DHT22;21725;50.836;4.368;2023-05-10T12:11:25;19.10;99.90
35603;DHT22;21725;50.836;4.368;2023-05-10T12:14:26;18.90;99.90
35603;DHT22;21725;50.836;4.368;2023-05-10T12:17:29;18.80;99.90
35603;DHT22;21725;50.836;4.368;2023-05-10T12:20:30;18.90;99.90
35603;DHT22;21725;50.836;4.368;2023-05-10T12:23:31;18.80;99.90
35603;DHT22;21725;50.836;4.368;2023-05-10T12:26:32;19.00;99.90
35603;DHT22;21725;50.836;4.368;2023-05-10T12:29:33;19.10;99.90
35603;DHT22;21725;50.836;4.368;2023-05-10T12:32:41;19.40;99.90
35603;DHT22;21725;50.836;4.368;2023-05-10T12:38:46;19.80;99.90
35603;DHT22;21725;50.836;4.368;2023-05-10T12:41:50;19.90;99.70
35603;DHT22;21725;50.836;4.368;2023-05-10T12:44:57;20.00;99.90
35603;DHT22;21725;50.836;4.368;2023-05-10T12:47:58;20.30;99.90
35603;DHT22;21725;50.836;4.368;2023-05-10T12:50:59;20.60;98.80
35603;DHT22;21725;50.836;4.368;2023-05-10T12:54:00;20.60;98.50
35603;DHT22;21725;50.836;4.368;2023-05-10T12:57:01;20.40;98.50
35603;DHT22;21725;50.836;4.368;2023-05-10T13:00:01;20.50;98.70
35603;DHT22;21725;50.836;4.368;2023-05-10T13:03:03;20.70;98.10
35603;DHT22;21725;50.836;4.368;2023-05-10T13:06:05;20.80;98.10
35603;DHT22;21725;50.836;4.368;2023-05-10T13:09:06;20.90;98.00
35603;DHT22;21725;50.836;4.368;2023-05-10T13:12:07;21.00;97.50
35603;DHT22;21725;50.836;4.368;2023-05-10T13:15:08;21.10;96.90
35603;DHT22;21725;50.836;4.368;2023-05-10T13:18:09;21.20;96.90
35603;DHT22;21725;50.836;4.368;2023-05-10T13:21:10;21.00;96.60
35603;DHT22;21725;50.836;4.368;2023-05-10T13:24:11;20.60;97.10
35603;DHT22;21725;50.836;4.368;2023-05-10T13:27:14;20.50;97.30
35603;DHT22;21725;50.836;4.368;2023-05-10T13:30:15;20.60;97.30
35603;DHT22;21725;50.836;4.368;2023-05-10T13:33:16;20.60;96.80
35603;DHT22;21725;50.836;4.368;2023-05-10T13:36:19;20.70;97.10
35603;DHT22;21725;50.836;4.368;2023-05-10T13:39:20;20.70;96.50
35603;DHT22;21725;50.836;4.368;2023-05-10T13:42:22;20.60;96.10
35603;DHT22;21725;50.836;4.368;2023-05-10T13:45:23;20.50;96.60
35603;DHT22;21725;50.836;4.368;2023-05-10T13:48:24;20.40;96.20
35603;DHT22;21725;50.836;4.368;2023-05-10T13:51:25;20.50;95.70
35603;DHT22;21725;50.836;4.368;2023-05-10T13:54:26;20.50;96.00
35603;DHT22;21725;50.836;4.368;2023-05-10T13:57:29;20.50;96.40
35603;DHT22;21725;50.836;4.368;2023-05-10T14:00:30;20.60;96.70
35603;DHT22;21725;50.836;4.368;2023-05-10T14:03:31;20.50;96.90
35603;DHT22;21725;50.836;4.368;2023-05-10T14:06:32;20.50;97.10
35603;DHT22;21725;50.836;4.368;2023-05-10T14:09:34;20.50;96.40
35603;DHT22;21725;50.836;4.368;2023-05-10T14:12:35;20.30;96.50
35603;DHT22;21725;50.836;4.368;2023-05-10T14:15:35;20.00;97.20
35603;DHT22;21725;50.836;4.368;2023-05-10T14:18:36;19.90;98.10
35603;DHT22;21725;50.836;4.368;2023-05-10T14:21:37;20.00;97.30
35603;DHT22;21725;50.836;4.368;2023-05-10T14:24:38;20.30;97.10
35603;DHT22;21725;50.836;4.368;2023-05-10T14:27:39;20.40;97.10
35603;DHT22;21725;50.836;4.368;2023-05-10T14:30:39;20.50;96.70
35603;DHT22;21725;50.836;4.368;2023-05-10T14:33:40;20.60;96.80
35603;DHT22;21725;50.836;4.368;2023-05-10T14:36:41;20.80;96.00
35603;DHT22;21725;50.836;4.368;2023-05-10T14:39:42;20.70;96.30
35603;DHT22;21725;50.836;4.368;2023-05-10T14:42:43;20.50;96.50
35603;DHT22;21725;50.836;4.368;2023-05-10T14:45:44;20.40;96.40
35603;DHT22;21725;50.836;4.368;2023-05-10T14:48:45;20.10;96.80
35603;DHT22;21725;50.836;4.368;2023-05-10T14:51:46;20.00;97.60
35603;DHT22;21725;50.836;4.368;2023-05-10T14:54:46;19.60;98.00
35603;DHT22;21725;50.836;4.368;2023-05-10T14:57:47;19.70;98.00
35603;DHT22;21725;50.836;4.368;2023-05-10T15:00:50;19.50;98.20
35603;DHT22;21725;50.836;4.368;2023-05-10T15:03:51;19.40;97.70
35603;DHT22;21725;50.836;4.368;2023-05-10T15:06:52;19.20;98.20
35603;DHT22;21725;50.836;4.368;2023-05-10T15:09:59;19.10;99.90
35603;DHT22;21725;50.836;4.368;2023-05-10T15:13:00;18.90;99.90
35603;DHT22;21725;50.836;4.368;2023-05-10T15:16:01;18.70;98.60
35603;DHT22;21725;50.836;4.368;2023-05-10T15:19:02;18.50;98.90
35603;DHT22;21725;50.836;4.368;2023-05-10T15:22:04;18.50;98.30
35603;DHT22;21725;50.836;4.368;2023-05-10T15:25:05;18.50;98.10
35603;DHT22;21725;50.836;4.368;2023-05-10T15:28:06;18.40;98.60
35603;DHT22;21725;50.836;4.368;2023-05-10T15:31:07;18.40;98.10
35603;DHT22;21725;50.836;4.368;2023-05-10T15:34:08;18.40;97.40
35603;DHT22;21725;50.836;4.368;2023-05-10T15:37:08;18.30;97.20
35603;DHT22;21725;50.836;4.368;2023-05-10T15:40:10;18.50;96.60
35603;DHT22;21725;50.836;4.368;2023-05-10T15:43:11;18.70;96.40
35603;DHT22;21725;50.836;4.368;2023-05-10T15:46:12;18.90;95.80
35603;DHT22;21725;50.836;4.368;2023-05-10T15:49:12;19.00;95.90
35603;DHT22;21725;50.836;4.368;2023-05-10T15:52:16;19.10;94.80
35603;DHT22;21725;50.836;4.368;2023-05-10T15:55:19;19.10;95.50
35603;DHT22;21725;50.836;4.368;2023-05-10T15:58:20;19.60;95.40
35603;DHT22;21725;50.836;4.368;2023-05-10T16:01:21;19.40;95.20
35603;DHT22;21725;50.836;4.368;2023-05-10T16:04:22;19.50;94.50
35603;DHT22;21725;50.836;4.368;2023-05-10T16:07:23;19.70;94.90
35603;DHT22;21725;50.836;4.368;2023-05-10T16:10:23;20.00;94.60
35603;DHT22;21725;50.836;4.368;2023-05-10T16:13:24;20.20;93.70
35603;DHT22;21725;50.836;4.368;2023-05-10T16:16:25;20.10;94.00
35603;DHT22;21725;50.836;4.368;2023-05-10T16:19:26;19.90;94.30
35603;DHT22;21725;50.836;4.368;2023-05-10T16:22:27;20.20;94.10
35603;DHT22;21725;50.836;4.368;2023-05-10T16:25:28;20.10;94.70
35603;DHT22;21725;50.836;4.368;2023-05-10T16:28:28;20.00;94.80
35603;DHT22;21725;50.836;4.368;2023-05-10T16:31:29;19.70;95.40
35603;DHT22;21725;50.836;4.368;2023-05-10T16:34:30;19.60;96.30
35603;DHT22;21725;50.836;4.368;2023-05-10T16:37:31;19.90;96.40
35603;DHT22;21725;50.836;4.368;2023-05-10T16:40:31;20.00;95.80
35603;DHT22;21725;50.836;4.368;2023-05-10T16:43:35;19.90;96.00
35603;DHT22;21725;50.836;4.368;2023-05-10T16:46:36;19.70;96.30
35603;DHT22;21725;50.836;4.368;2023-05-10T16:49:36;19.50;96.70
35603;DHT22;21725;50.836;4.368;2023-05-10T16:52:37;19.40;97.20
35603;DHT22;21725;50.836;4.368;2023-05-10T16:55:38;19.50;97.00
35603;DHT22;21725;50.836;4.368;2023-05-10T16:58:38;19.50;96.90
35603;DHT22;21725;50.836;4.368;2023-05-10T17:01:39;19.10;97.30
35603;DHT22;21725;50.836;4.368;2023-05-10T17:04:41;19.00;98.10
35603;DHT22;21725;50.836;4.368;2023-05-10T17:07:42;19.30;97.90
35603;DHT22;21725;50.836;4.368;2023-05-10T17:10:43;19.40;97.10
35603;DHT22;21725;50.836;4.368;2023-05-10T17:13:43;19.30;97.60
35603;DHT22;21725;50.836;4.368;2023-05-10T17:16:44;19.50;97.30
35603;DHT22;21725;50.836;4.368;2023-05-10T17:19:45;19.40;97.50
35603;DHT22;21725;50.836;4.368;2023-05-10T17:22:46;19.30;97.50
35603;DHT22;21725;50.836;4.368;2023-05-10T17:25:46;19.30;97.50
35603;DHT22;21725;50.836;4.368;2023-05-10T17:28:47;19.30;97.70
35603;DHT22;21725;50.836;4.368;2023-05-10T17:31:48;19.40;97.50
35603;DHT22;21725;50.836;4.368;2023-05-10T17:34:49;19.30;97.90
35603;DHT22;21725;50.836;4.368;2023-05-10T17:37:49;19.30;97.30
35603;DHT22;21725;50.836;4.368;2023-05-10T17:40:51;19.30;97.50
35603;DHT22;21725;50.836;4.368;2023-05-10T17:43:52;19.40;97.20
35603;DHT22;21725;50.836;4.368;2023-05-10T17:46:53;19.30;97.60
35603;DHT22;21725;50.836;4.368;2023-05-10T17:49:54;19.30;97.70
35603;DHT22;21725;50.836;4.368;2023-05-10T17:52:54;19.40;97.80
35603;DHT22;21725;50.836;4.368;2023-05-10T17:55:55;19.20;98.10
35603;DHT22;21725;50.836;4.368;2023-05-10T17:59:01;19.20;97.90
35603;DHT22;21725;50.836;4.368;2023-05-10T18:02:02;19.10;98.20
35603;DHT22;21725;50.836;4.368;2023-05-10T18:05:03;18.80;98.50
35603;DHT22;21725;50.836;4.368;2023-05-10T18:08:04;18.60;98.80
35603;DHT22;21725;50.836;4.368;2023-05-10T18:11:06;18.60;99.10
35603;DHT22;21725;50.836;4.368;2023-05-10T18:14:07;18.60;99.10
35603;DHT22;21725;50.836;4.368;2023-05-10T18:17:08;18.70;99.10
35603;DHT22;21725;50.836;4.368;2023-05-10T18:20:09;18.50;99.30
35603;DHT22;21725;50.836;4.368;2023-05-10T18:23:10;18.20;99.80
35603;DHT22;21725;50.836;4.368;2023-05-10T18:26:11;18.00;99.90
35603;DHT22;21725;50.836;4.368;2023-05-10T18:29:12;17.90;99.90
35603;DHT22;21725;50.836;4.368;2023-05-10T18:32:14;17.80;99.90
35603;DHT22;21725;50.836;4.368;2023-05-10T18:35:14;17.80;99.90
35603;DHT22;21725;50.836;4.368;2023-05-10T18:38:15;17.90;99.90
35603;DHT22;21725;50.836;4.368;2023-05-10T18:41:16;18.10;99.90
35603;DHT22;21725;50.836;4.368;2023-05-10T18:44:22;17.90;99.90
35603;DHT22;21725;50.836;4.368;2023-05-10T18:47:25;17.90;99.90
35603;DHT22;21725;50.836;4.368;2023-05-10T18:50:26;17.90;99.90
35603;DHT22;21725;50.836;4.368;2023-05-10T18:53:27;17.90;99.90
35603;DHT22;21725;50.836;4.368;2023-05-10T18:56:28;17.80;99.90
35603;DHT22;21725;50.836;4.368;2023-05-10T18:59:29;17.80;99.90
35603;DHT22;21725;50.836;4.368;2023-05-10T19:02:30;17.80;99.90
35603;DHT22;21725;50.836;4.368;2023-05-10T19:05:30;17.90;99.90
35603;DHT22;21725;50.836;4.368;2023-05-10T19:08:31;17.80;99.90
35603;DHT22;21725;50.836;4.368;2023-05-10T19:11:37;17.70;99.90
35603;DHT22;21725;50.836;4.368;2023-05-10T19:14:38;17.50;99.90
35603;DHT22;21725;50.836;4.368;2023-05-10T19:17:39;17.50;99.90
35603;DHT22;21725;50.836;4.368;2023-05-10T19:20:39;17.50;99.90
35603;DHT22;21725;50.836;4.368;2023-05-10T19:23:40;17.50;99.90
35603;DHT22;21725;50.836;4.368;2023-05-10T19:26:42;17.60;99.90
35603;DHT22;21725;50.836;4.368;2023-05-10T19:29:43;17.70;99.90
35603;DHT22;21725;50.836;4.368;2023-05-10T19:32:43;17.80;99.90
35603;DHT22;21725;50.836;4.368;2023-05-10T19:35:44;17.80;99.70
35603;DHT22;21725;50.836;4.368;2023-05-10T19:38:45;17.90;99.20